Time,TemperatureF,DewpointF,PressureIn,WindDirection,WindDirectionDegrees,WindSpeedMPH,WindSpeedGustMPH,Humidity,HourlyPrecipIn,Conditions,Clouds,dailyrainin,SoftwareType,DateUTC
2013-04-01 00:00:00,74.8,70.4,30.09,North,0,0.0,0.0,86,0.00,,SCT120,0.00,VWS V14.01,2013-04-01 04:00:00,
2013-04-01 00:05:00,74.8,70.4,30.09,North,0,0.0,0.0,86,0.00,,SCT120,0.00,VWS V14.01,2013-04-01 04:05:00,
2013-04-01 00:10:00,74.8,70.4,30.09,North,0,0.0,0.0,86,0.00,,SCT120,0.00,VWS V14.01,2013-04-01 04:10:00,
2013-04-01 00:12:00,74.7,70.2,30.09,North,0,0.0,0.0,86,0.00,,SCT120,0.00,VWS V14.01,2013-04-01 04:12:00,
2013-04-01 00:17:00,74.7,70.2,30.09,North,0,0.0,0.0,86,0.00,,SCT120,0.00,VWS V14.01,2013-04-01 04:17:00,
2013-04-01 00:22:00,74.8,70.4,30.09,North,0,0.0,0.0,86,0.00,,SCT120,0.00,VWS V14.01,2013-04-01 04:22:00,
2013-04-01 00:27:00,74.8,70.4,30.09,North,0,0.0,0.0,86,0.00,,SCT120,0.00,VWS V14.01,2013-04-01 04:27:00,
2013-04-01 00:32:00,74.8,70.4,30.09,North,0,0.0,0.0,86,0.00,,SCT120,0.00,VWS V14.01,2013-04-01 04:32:00,
2013-04-01 00:37:00,74.8,70.4,30.09,North,0,0.0,0.0,86,0.00,,SCT120,0.00,VWS V14.01,2013-04-01 04:37:00,
2013-04-01 00:42:00,74.7,70.5,30.06,North,0,0.0,0.0,87,0.00,,SCT120,0.00,VWS V14.01,2013-04-01 04:42:00,
2013-04-01 00:47:00,74.7,70.5,30.06,North,0,0.0,0.0,87,0.00,,SCT120,0.00,VWS V14.01,2013-04-01 04:47:00,
2013-04-01 00:52:00,74.7,70.5,30.06,North,0,0.0,0.0,87,0.00,,SCT120,0.00,VWS V14.01,2013-04-01 04:52:00,
2013-04-01 00:57:00,74.7,70.5,30.06,North,0,0.0,0.0,87,0.00,,SCT120,0.00,VWS V14.01,2013-04-01 04:57:00,
2013-04-01 01:02:00,74.7,70.5,30.06,North,0,0.0,0.0,87,0.00,,SCT120,0.00,VWS V14.01,2013-04-01 05:02:00,
2013-04-01 01:07:00,74.7,70.5,30.06,North,0,0.0,0.0,87,0.00,,SCT120,0.00,VWS V14.01,2013-04-01 05:07:00,
2013-04-01 01:12:00,74.7,70.5,30.06,North,0,0.0,0.0,87,0.00,,SCT120,0.00,VWS V14.01,2013-04-01 05:12:00,
2013-04-01 01:17:00,74.7,70.5,30.06,North,0,0.0,0.0,87,0.00,,SCT120,0.00,VWS V14.01,2013-04-01 05:17:00,
2013-04-01 01:22:00,74.7,70.5,30.06,North,0,0.0,0.0,87,0.00,,SCT120,0.00,VWS V14.01,2013-04-01 05:22:00,
2013-04-01 01:27:00,74.5,70.4,30.06,North,0,0.0,0.0,87,0.00,,SCT120,0.00,VWS V14.01,2013-04-01 05:27:00,
2013-04-01 01:32:00,74.5,70.4,30.06,North,0,0.0,0.0,87,0.00,,SCT120,0.00,VWS V14.01,2013-04-01 05:32:00,
2013-04-01 01:37:00,74.3,70.2,30.06,North,0,0.0,0.0,87,0.00,,SCT120,0.00,VWS V14.01,2013-04-01 05:37:00,
2013-04-01 01:42:00,74.3,70.2,30.03,North,0,0.0,0.0,87,0.00,,SCT120,0.00,VWS V14.01,2013-04-01 05:42:00,
2013-04-01 01:47:00,74.1,70.0,30.03,North,0,0.0,0.0,87,0.00,,SCT120,0.00,VWS V14.01,2013-04-01 05:47:00,
2013-04-01 01:52:00,74.1,70.0,30.03,North,0,0.0,0.0,87,0.00,,SCT120,0.00,VWS V14.01,2013-04-01 05:52:00,
2013-04-01 01:57:00,73.9,69.8,30.06,North,0,0.0,0.0,87,0.00,,SCT120,0.00,VWS V14.01,2013-04-01 05:57:00,
2013-04-01 02:02:00,73.9,69.8,30.06,North,0,0.0,0.0,87,0.00,,SCT120,0.00,VWS V14.01,2013-04-01 06:02:00,
2013-04-01 02:07:00,73.8,69.7,30.06,North,0,0.0,0.0,87,0.00,,SCT120,0.00,VWS V14.01,2013-04-01 06:07:00,
2013-04-01 02:12:00,73.8,69.7,30.06,North,0,0.0,0.0,87,0.00,,SCT120,0.00,VWS V14.01,2013-04-01 06:12:00,
2013-04-01 02:17:00,73.8,69.7,30.06,North,0,0.0,0.0,87,0.00,,SCT120,0.00,VWS V14.01,2013-04-01 06:17:00,
2013-04-01 02:22:00,73.8,69.7,30.06,North,0,0.0,0.0,87,0.00,,SCT120,0.00,VWS V14.01,2013-04-01 06:22:00,
2013-04-01 02:27:00,73.8,69.7,30.06,North,0,0.0,0.0,87,0.00,,SCT120,0.00,VWS V14.01,2013-04-01 06:27:00,
2013-04-01 02:32:00,73.8,69.7,30.06,North,0,0.0,0.0,87,0.00,,SCT120,0.00,VWS V14.01,2013-04-01 06:32:00,
2013-04-01 02:37:00,73.6,69.5,30.06,North,0,0.0,0.0,87,0.00,,SCT120,0.00,VWS V14.01,2013-04-01 06:37:00,
2013-04-01 02:42:00,73.6,69.5,30.03,North,0,0.0,0.0,87,0.00,,SCT120,0.00,VWS V14.01,2013-04-01 06:42:00,
2013-04-01 02:47:00,73.6,69.5,30.03,North,0,0.0,0.0,87,0.00,,SCT120,0.00,VWS V14.01,2013-04-01 06:47:00,
2013-04-01 02:52:00,73.6,69.5,30.03,North,0,0.0,0.0,87,0.00,,SCT120,0.00,VWS V14.01,2013-04-01 06:52:00,
2013-04-01 02:57:00,73.4,69.0,30.03,North,0,0.0,0.0,86,0.00,,SCT120,0.00,VWS V14.01,2013-04-01 06:57:00,
2013-04-01 03:02:00,73.4,69.0,30.03,North,0,0.0,0.0,86,0.00,,SCT120,0.00,VWS V14.01,2013-04-01 07:02:00,
2013-04-01 03:07:00,73.4,69.0,30.03,North,0,0.0,0.0,86,0.00,,SCT120,0.00,VWS V14.01,2013-04-01 07:07:00,
2013-04-01 03:12:00,73.4,69.0,30.03,North,0,0.0,0.0,86,0.00,,SCT120,0.00,VWS V14.01,2013-04-01 07:12:00,
2013-04-01 03:17:00,73.4,69.0,30.03,North,0,0.0,0.0,86,0.00,,SCT120,0.00,VWS V14.01,2013-04-01 07:17:00,
2013-04-01 03:22:00,73.4,69.0,30.03,North,0,0.0,0.0,86,0.00,,SCT120,0.00,VWS V14.01,2013-04-01 07:22:00,
2013-04-01 03:27:00,73.4,69.0,30.03,North,0,0.0,0.0,86,0.00,,SCT120,0.00,VWS V14.01,2013-04-01 07:27:00,
2013-04-01 03:32:00,73.4,69.0,30.03,North,0,0.0,0.0,86,0.00,,SCT120,0.00,VWS V14.01,2013-04-01 07:32:00,
2013-04-01 03:38:00,73.4,68.6,30.03,North,0,0.0,0.0,85,0.00,,SCT120,0.00,VWS V14.01,2013-04-01 07:38:00,
2013-04-01 03:43:00,73.4,68.6,30.03,North,0,0.0,0.0,85,0.00,,SCT120,0.00,VWS V14.01,2013-04-01 07:43:00,
2013-04-01 03:48:00,73.2,68.4,30.03,North,0,0.0,0.0,85,0.00,,SCT120,0.00,VWS V14.01,2013-04-01 07:48:00,
2013-04-01 03:53:00,73.2,68.4,30.03,North,0,0.0,0.0,85,0.00,,SCT120,0.00,VWS V14.01,2013-04-01 07:53:00,
2013-04-01 03:58:00,73.2,68.4,30.00,North,0,0.0,0.0,85,0.00,,SCT120,0.00,VWS V14.01,2013-04-01 07:58:00,
2013-04-01 04:03:00,73.4,68.3,30.00,North,0,0.0,0.0,84,0.00,,SCT120,0.00,VWS V14.01,2013-04-01 08:03:00,
2013-04-01 04:08:00,73.4,68.3,30.00,North,0,0.0,0.0,84,0.00,,SCT120,0.00,VWS V14.01,2013-04-01 08:08:00,
2013-04-01 04:13:00,73.2,68.1,30.03,North,0,0.0,0.0,84,0.00,,SCT120,0.00,VWS V14.01,2013-04-01 08:13:00,
2013-04-01 04:18:00,73.2,68.1,30.03,North,0,0.0,0.0,84,0.00,,SCT120,0.00,VWS V14.01,2013-04-01 08:18:00,
2013-04-01 04:23:00,73.2,68.1,30.03,North,0,0.0,0.0,84,0.00,,SCT120,0.00,VWS V14.01,2013-04-01 08:23:00,
2013-04-01 04:28:00,73.0,67.6,30.03,North,0,0.0,0.0,83,0.00,,SCT120,0.00,VWS V14.01,2013-04-01 08:28:00,
2013-04-01 04:33:00,73.0,67.6,30.03,North,0,0.0,0.0,83,0.00,,SCT120,0.00,VWS V14.01,2013-04-01 08:33:00,
2013-04-01 04:38:00,73.0,67.6,30.03,North,0,0.0,0.0,83,0.00,,SCT120,0.00,VWS V14.01,2013-04-01 08:38:00,
2013-04-01 04:43:00,73.0,67.6,30.03,North,0,0.0,0.0,83,0.00,,SCT120,0.00,VWS V14.01,2013-04-01 08:43:00,
2013-04-01 04:48:00,73.0,67.6,30.03,North,0,0.0,0.0,83,0.00,,SCT120,0.00,VWS V14.01,2013-04-01 08:48:00,
2013-04-01 04:53:00,72.9,67.4,30.03,North,0,0.0,0.0,83,0.00,,SCT120,0.00,VWS V14.01,2013-04-01 08:53:00,
2013-04-01 04:58:00,72.9,67.4,30.03,North,0,0.0,0.0,83,0.00,,SCT120,0.00,VWS V14.01,2013-04-01 08:58:00,
2013-04-01 05:03:00,72.7,67.2,30.03,North,0,0.0,0.0,83,0.00,,SCT120,0.00,VWS V14.01,2013-04-01 09:03:00,
2013-04-01 05:08:00,72.7,67.2,30.03,North,0,0.0,0.0,83,0.00,,SCT120,0.00,VWS V14.01,2013-04-01 09:08:00,
2013-04-01 05:13:00,72.7,67.2,30.03,North,0,0.0,0.0,83,0.00,,SCT120,0.00,VWS V14.01,2013-04-01 09:13:00,
2013-04-01 05:18:00,72.7,67.2,30.03,North,0,0.0,0.0,83,0.00,,SCT120,0.00,VWS V14.01,2013-04-01 09:18:00,
2013-04-01 05:23:00,72.5,67.1,30.03,North,0,0.0,0.0,83,0.00,,SCT120,0.00,VWS V14.01,2013-04-01 09:23:00,
2013-04-01 05:28:00,72.5,67.4,30.06,North,0,0.0,0.0,84,0.00,,SCT120,0.00,VWS V14.01,2013-04-01 09:28:00,
2013-04-01 05:33:00,72.5,67.4,30.06,North,0,0.0,0.0,84,0.00,,SCT120,0.00,VWS V14.01,2013-04-01 09:33:00,
2013-04-01 05:38:00,72.5,67.4,30.06,North,0,0.0,0.0,84,0.00,,SCT120,0.00,VWS V14.01,2013-04-01 09:38:00,
2013-04-01 05:43:00,72.5,67.4,30.06,North,0,0.0,0.0,84,0.00,,SCT120,0.00,VWS V14.01,2013-04-01 09:43:00,
2013-04-01 05:48:00,72.3,67.2,30.06,North,0,0.0,0.0,84,0.00,,SCT120,0.00,VWS V14.01,2013-04-01 09:48:00,
2013-04-01 05:53:00,72.3,67.6,30.06,North,0,0.0,0.0,85,0.00,,SCT120,0.00,VWS V14.01,2013-04-01 09:53:00,
2013-04-01 05:58:00,72.3,67.6,30.06,North,0,0.0,0.0,85,0.00,,SCT120,0.00,VWS V14.01,2013-04-01 09:58:00,
2013-04-01 06:03:00,72.1,67.7,30.06,North,0,0.0,0.0,86,0.00,,SCT120,0.00,VWS V14.01,2013-04-01 10:03:00,
2013-04-01 06:08:00,72.1,68.1,30.06,North,0,0.0,0.0,87,0.00,,SCT120,0.00,VWS V14.01,2013-04-01 10:08:00,
2013-04-01 06:13:00,72.1,68.1,30.06,North,0,0.0,0.0,87,0.00,,SCT120,0.00,VWS V14.01,2013-04-01 10:13:00,
2013-04-01 06:18:00,72.1,68.1,30.06,North,0,0.0,0.0,87,0.00,,SCT120,0.00,VWS V14.01,2013-04-01 10:18:00,
2013-04-01 06:23:00,72.1,68.1,30.06,North,0,0.0,0.0,87,0.00,,SCT120,0.00,VWS V14.01,2013-04-01 10:23:00,
2013-04-01 06:28:00,72.1,68.1,30.06,North,0,0.0,0.0,87,0.00,,SCT120,0.00,VWS V14.01,2013-04-01 10:28:00,
2013-04-01 06:33:00,72.1,68.1,30.06,North,0,0.0,0.0,87,0.00,,SCT120,0.00,VWS V14.01,2013-04-01 10:33:00,
2013-04-01 06:38:00,72.3,68.2,30.06,North,0,0.0,0.0,87,0.00,,SCT120,0.00,VWS V14.01,2013-04-01 10:38:00,
2013-04-01 06:43:00,72.3,68.2,30.06,North,0,0.0,0.0,87,0.00,,SCT120,0.00,VWS V14.01,2013-04-01 10:43:00,
2013-04-01 06:48:00,72.3,68.2,30.06,North,0,0.0,0.0,87,0.00,,SCT120,0.00,VWS V14.01,2013-04-01 10:48:00,
2013-04-01 06:53:00,72.5,68.4,30.06,North,0,0.0,0.0,87,0.00,,SCT120,0.00,VWS V14.01,2013-04-01 10:53:00,
2013-04-01 06:58:00,72.5,68.4,30.06,North,0,0.0,0.0,87,0.00,,SCT120,0.00,VWS V14.01,2013-04-01 10:58:00,
2013-04-01 07:03:00,72.5,68.4,30.06,North,0,0.0,0.0,87,0.00,,SCT120,0.00,VWS V14.01,2013-04-01 11:03:00,
2013-04-01 07:08:00,72.7,68.6,30.09,North,0,0.0,0.0,87,0.00,,SCT120,0.00,VWS V14.01,2013-04-01 11:08:00,
2013-04-01 07:13:00,72.9,68.8,30.09,North,0,0.0,0.0,87,0.00,,SCT120,0.00,VWS V14.01,2013-04-01 11:13:00,
2013-04-01 07:18:00,73.0,68.9,30.09,North,0,0.0,0.0,87,0.00,,SCT120,0.00,VWS V14.01,2013-04-01 11:18:00,
2013-04-01 07:23:00,73.2,69.5,30.09,North,0,0.0,0.0,88,0.00,,SCT120,0.00,VWS V14.01,2013-04-01 11:23:00,
2013-04-01 07:28:00,73.6,69.5,30.09,North,0,0.0,0.0,87,0.00,,SCT120,0.00,VWS V14.01,2013-04-01 11:28:00,
2013-04-01 07:33:00,73.6,69.5,30.09,North,0,0.0,0.0,87,0.00,,SCT120,0.00,VWS V14.01,2013-04-01 11:33:00,
2013-04-01 07:38:00,73.9,69.8,30.09,North,0,0.0,0.0,87,0.00,,SCT120,0.00,VWS V14.01,2013-04-01 11:38:00,
2013-04-01 07:43:00,74.3,70.2,30.09,North,0,0.0,0.0,87,0.00,,SCT120,0.00,VWS V14.01,2013-04-01 11:43:00,
2013-04-01 07:48:00,74.5,70.0,30.09,North,0,0.0,0.0,86,0.00,,SCT120,0.00,VWS V14.01,2013-04-01 11:48:00,
2013-04-01 07:53:00,74.8,70.0,30.09,North,0,0.0,0.0,85,0.00,,SCT120,0.00,VWS V14.01,2013-04-01 11:53:00,
2013-04-01 07:59:00,75.2,69.7,30.09,North,0,0.0,0.0,83,0.00,,SCT120,0.00,VWS V14.01,2013-04-01 11:59:00,
2013-04-01 08:04:00,75.6,69.7,30.09,North,0,0.0,0.0,82,0.00,,SCT120,0.00,VWS V14.01,2013-04-01 12:04:00,
2013-04-01 08:09:00,75.9,69.7,30.09,North,0,0.0,0.0,81,0.00,,SCT120,0.00,VWS V14.01,2013-04-01 12:09:00,
2013-04-01 08:14:00,76.5,69.8,30.09,North,0,0.0,0.0,80,0.00,,SCT120,0.00,VWS V14.01,2013-04-01 12:14:00,
2013-04-01 08:19:00,77.2,69.8,30.09,North,0,0.0,0.0,78,0.00,,SCT120,0.00,VWS V14.01,2013-04-01 12:19:00,
2013-04-01 08:24:00,77.4,68.8,30.09,North,0,0.0,0.0,75,0.00,,SCT120,0.00,VWS V14.01,2013-04-01 12:24:00,
2013-04-01 08:29:00,78.3,68.5,30.09,North,0,0.0,0.0,72,0.00,,SCT120,0.00,VWS V14.01,2013-04-01 12:29:00,
2013-04-01 08:34:00,78.8,66.1,30.09,North,0,0.0,0.0,65,0.00,,SCT120,0.00,VWS V14.01,2013-04-01 12:34:00,
2013-04-01 08:39:00,79.2,64.1,30.09,North,0,0.0,0.0,60,0.00,,SCT120,0.00,VWS V14.01,2013-04-01 12:39:00,
2013-04-01 08:44:00,79.3,61.3,30.09,North,0,0.0,0.0,54,0.00,,SCT120,0.00,VWS V14.01,2013-04-01 12:44:00,
2013-04-01 08:49:00,79.9,59.0,30.09,North,0,0.0,0.0,49,0.00,,SCT120,0.00,VWS V14.01,2013-04-01 12:49:00,
2013-04-01 08:54:00,80.1,56.8,30.09,North,0,0.0,0.0,45,0.00,,SCT120,0.00,VWS V14.01,2013-04-01 12:54:00,
2013-04-01 08:59:00,80.2,57.0,30.09,North,0,0.0,0.0,45,0.00,,SCT120,0.00,VWS V14.01,2013-04-01 12:59:00,
2013-04-01 09:04:00,80.8,57.5,30.09,North,0,0.0,0.0,45,0.00,,SCT120,0.00,VWS V14.01,2013-04-01 13:04:00,
2013-04-01 09:09:00,81.7,57.7,30.09,North,0,0.0,0.0,44,0.00,,SCT120,0.00,VWS V14.01,2013-04-01 13:09:00,
2013-04-01 09:14:00,82.4,59.0,30.09,North,0,0.0,0.0,45,0.00,,SCT120,0.00,VWS V14.01,2013-04-01 13:14:00,
2013-04-01 09:19:00,82.8,57.3,30.09,North,0,0.0,0.0,42,0.00,,SCT120,0.00,VWS V14.01,2013-04-01 13:19:00,
2013-04-01 09:24:00,82.6,56.5,30.09,North,0,0.0,0.0,41,0.00,,SCT120,0.00,VWS V14.01,2013-04-01 13:24:00,
2013-04-01 09:29:00,82.8,50.8,30.09,North,0,0.0,0.0,33,0.00,,SCT120,0.00,VWS V14.01,2013-04-01 13:29:00,
2013-04-01 09:34:00,82.8,48.2,30.09,North,0,0.0,0.0,30,0.00,,SCT120,0.00,VWS V14.01,2013-04-01 13:34:00,
2013-04-01 09:39:00,82.4,46.1,30.09,North,0,0.0,0.0,28,0.00,,SCT120,0.00,VWS V14.01,2013-04-01 13:39:00,
2013-04-01 09:44:00,82.0,46.7,30.09,North,0,0.0,0.0,29,0.00,,SCT120,0.00,VWS V14.01,2013-04-01 13:44:00,
2013-04-01 09:49:00,82.0,45.8,30.09,North,0,0.0,0.0,28,0.00,,SCT120,0.00,VWS V14.01,2013-04-01 13:49:00,
2013-04-01 09:54:00,82.2,45.9,30.09,North,0,0.0,0.0,28,0.00,,SCT120,0.00,VWS V14.01,2013-04-01 13:54:00,
2013-04-01 09:59:00,82.4,45.1,30.09,North,0,0.0,0.0,27,0.00,,SCT120,0.00,VWS V14.01,2013-04-01 13:59:00,
2013-04-01 10:04:00,82.6,44.3,30.09,North,0,0.0,0.0,26,0.00,,SCT120,0.00,VWS V14.01,2013-04-01 14:04:00,
2013-04-01 10:09:00,82.8,44.4,30.12,North,0,0.0,0.0,26,0.00,,SCT120,0.00,VWS V14.01,2013-04-01 14:09:00,
2013-04-01 10:14:00,82.8,45.4,30.12,North,0,0.0,0.0,27,0.00,,SCT120,0.00,VWS V14.01,2013-04-01 14:14:00,
2013-04-01 10:19:00,82.9,44.6,30.12,North,0,0.0,0.0,26,0.00,,SCT120,0.00,VWS V14.01,2013-04-01 14:19:00,
2013-04-01 10:24:00,82.9,45.6,30.12,North,0,0.0,0.0,27,0.00,,SCT120,0.00,VWS V14.01,2013-04-01 14:24:00,
2013-04-01 10:33:00,83.3,47.8,30.12,North,0,0.0,0.0,29,0.00,,SCT120,0.00,VWS V14.01,2013-04-01 14:33:00,
2013-04-01 10:38:00,83.7,49.0,30.12,North,0,0.0,0.0,30,0.00,,SCT120,0.00,VWS V14.01,2013-04-01 14:38:00,
2013-04-01 10:43:00,83.5,48.8,30.09,North,0,0.0,0.0,30,0.00,,SCT120,0.00,VWS V14.01,2013-04-01 14:43:00,
2013-04-01 10:48:00,83.5,48.8,30.09,North,0,0.0,0.0,30,0.00,,SCT120,0.00,VWS V14.01,2013-04-01 14:48:00,
2013-04-01 10:53:00,83.5,48.8,30.09,North,0,0.0,0.0,30,0.00,,SCT120,0.00,VWS V14.01,2013-04-01 14:53:00,
2013-04-01 10:58:00,83.3,48.7,30.09,North,0,0.0,0.0,30,0.00,,SCT120,0.00,VWS V14.01,2013-04-01 14:58:00,
2013-04-01 11:03:00,82.9,48.3,30.09,North,0,0.0,0.0,30,0.00,,SCT120,0.00,VWS V14.01,2013-04-01 15:03:00,
2013-04-01 11:08:00,83.1,48.5,30.09,North,0,0.0,0.0,30,0.00,,SCT120,0.00,VWS V14.01,2013-04-01 15:08:00,
2013-04-01 11:13:00,82.8,48.2,30.09,North,0,0.0,0.0,30,0.00,,SCT120,0.00,VWS V14.01,2013-04-01 15:13:00,
2013-04-01 11:18:00,83.1,48.5,30.09,North,0,0.0,0.0,30,0.00,,SCT120,0.00,VWS V14.01,2013-04-01 15:18:00,
2013-04-01 11:23:00,82.9,48.3,30.09,North,0,0.0,0.0,30,0.00,,SCT120,0.00,VWS V14.01,2013-04-01 15:23:00,
2013-04-01 11:28:00,82.8,48.2,30.09,North,0,0.0,0.0,30,0.00,,SCT120,0.00,VWS V14.01,2013-04-01 15:28:00,
2013-04-01 11:33:00,82.6,48.0,30.09,North,0,0.0,0.0,30,0.00,,SCT120,0.00,VWS V14.01,2013-04-01 15:33:00,
2013-04-01 11:38:00,82.8,47.3,30.09,North,0,0.0,0.0,29,0.00,,SCT120,0.00,VWS V14.01,2013-04-01 15:38:00,
2013-04-01 11:43:00,82.9,47.5,30.09,North,0,0.0,0.0,29,0.00,,SCT120,0.00,VWS V14.01,2013-04-01 15:43:00,
2013-04-01 11:48:00,82.9,47.5,30.09,North,0,0.0,0.0,29,0.00,,SCT120,0.00,VWS V14.01,2013-04-01 15:48:00,
2013-04-01 11:53:00,82.9,47.5,30.09,North,0,0.0,0.0,29,0.00,,SCT120,0.00,VWS V14.01,2013-04-01 15:53:00,
2013-04-01 11:58:00,83.1,45.7,30.06,North,0,0.0,0.0,27,0.00,,SCT120,0.00,VWS V14.01,2013-04-01 15:58:00,
2013-04-01 12:03:00,83.3,46.8,30.06,North,0,0.0,0.0,28,0.00,,SCT120,0.00,VWS V14.01,2013-04-01 16:03:00,
2013-04-01 12:08:00,84.0,47.4,30.06,North,0,0.0,0.0,28,0.00,,SCT120,0.00,VWS V14.01,2013-04-01 16:08:00,
2013-04-01 12:13:00,84.2,45.6,30.06,North,0,0.0,0.0,26,0.00,,SCT120,0.00,VWS V14.01,2013-04-01 16:13:00,
2013-04-01 12:18:00,83.7,46.2,30.06,North,0,0.0,0.0,27,0.00,,SCT120,0.00,VWS V14.01,2013-04-01 16:18:00,
2013-04-01 12:23:00,83.5,47.0,30.06,North,0,0.0,0.0,28,0.00,,SCT120,0.00,VWS V14.01,2013-04-01 16:23:00,
2013-04-01 12:28:00,83.7,48.1,30.06,North,0,0.0,0.0,29,0.00,,SCT120,0.00,VWS V14.01,2013-04-01 16:28:00,
2013-04-01 12:33:00,84.0,46.5,30.06,North,0,0.0,0.0,27,0.00,,SCT120,0.00,VWS V14.01,2013-04-01 16:33:00,
2013-04-01 12:38:00,84.0,45.5,30.06,North,0,0.0,0.0,26,0.00,,SCT120,0.00,VWS V14.01,2013-04-01 16:38:00,
2013-04-01 12:43:00,84.0,45.5,30.06,North,0,0.0,0.0,26,0.00,,SCT120,0.00,VWS V14.01,2013-04-01 16:43:00,
2013-04-01 12:48:00,84.4,45.8,30.06,North,0,0.0,0.0,26,0.00,,SCT120,0.00,VWS V14.01,2013-04-01 16:48:00,
2013-04-01 12:53:00,85.1,45.4,30.06,North,0,0.0,0.0,25,0.00,,SCT120,0.00,VWS V14.01,2013-04-01 16:53:00,
2013-04-01 12:58:00,85.1,42.0,30.06,North,0,0.0,0.0,22,0.00,,SCT120,0.00,VWS V14.01,2013-04-01 16:58:00,
2013-04-01 13:03:00,85.1,44.3,30.06,North,0,0.0,0.0,24,0.00,,SCT120,0.00,VWS V14.01,2013-04-01 17:03:00,
2013-04-01 13:08:00,85.3,43.3,30.06,North,0,0.0,0.0,23,0.00,,SCT120,0.00,VWS V14.01,2013-04-01 17:08:00,
2013-04-01 13:13:00,85.1,43.2,30.06,North,0,0.0,0.0,23,0.00,,SCT120,0.00,VWS V14.01,2013-04-01 17:13:00,
2013-04-01 13:18:00,84.6,41.6,30.06,North,0,0.0,0.0,22,0.00,,SCT120,0.00,VWS V14.01,2013-04-01 17:18:00,
2013-04-01 13:27:00,84.2,41.3,30.03,North,0,0.0,0.0,22,0.00,,SCT120,0.00,VWS V14.01,2013-04-01 17:27:00,
2013-04-01 13:32:00,84.0,41.1,30.03,North,0,0.0,0.0,22,0.00,,SCT120,0.00,VWS V14.01,2013-04-01 17:32:00,
2013-04-01 13:37:00,84.2,41.3,30.03,North,0,0.0,0.0,22,0.00,,SCT120,0.00,VWS V14.01,2013-04-01 17:37:00,
2013-04-01 13:42:00,84.4,40.2,30.03,North,0,0.0,0.0,21,0.00,,SCT120,0.00,VWS V14.01,2013-04-01 17:42:00,
2013-04-01 13:47:00,84.9,39.4,30.03,North,0,0.0,0.0,20,0.00,,SCT120,0.00,VWS V14.01,2013-04-01 17:47:00,
2013-04-01 13:52:00,84.9,40.7,30.03,North,0,0.0,0.0,21,0.00,,SCT120,0.00,VWS V14.01,2013-04-01 17:52:00,
2013-04-01 13:57:00,85.3,41.0,30.03,North,0,0.0,0.0,21,0.00,,SCT120,0.00,VWS V14.01,2013-04-01 17:57:00,
2013-04-01 14:02:00,85.5,41.1,30.03,North,0,0.0,0.0,21,0.00,,SCT120,0.00,VWS V14.01,2013-04-01 18:02:00,
2013-04-01 14:07:00,85.5,39.9,30.03,North,0,0.0,0.0,20,0.00,,SCT120,0.00,VWS V14.01,2013-04-01 18:07:00,
2013-04-01 14:12:00,86.0,40.3,30.03,North,0,0.0,0.0,20,0.00,,SCT120,0.00,VWS V14.01,2013-04-01 18:12:00,
2013-04-01 14:17:00,86.5,39.4,30.03,North,0,0.0,0.0,19,0.00,,SCT120,0.00,VWS V14.01,2013-04-01 18:17:00,
2013-04-01 14:22:00,86.0,39.0,30.03,North,0,0.0,0.0,19,0.00,,SCT120,0.00,VWS V14.01,2013-04-01 18:22:00,
2013-04-01 14:27:00,85.8,40.2,30.03,North,0,0.0,0.0,20,0.00,,SCT120,0.00,VWS V14.01,2013-04-01 18:27:00,
2013-04-01 14:32:00,86.0,40.3,30.03,North,0,0.0,0.0,20,0.00,,SCT120,0.00,VWS V14.01,2013-04-01 18:32:00,
2013-04-01 14:37:00,85.5,41.1,30.03,North,0,0.0,0.0,21,0.00,,SCT120,0.00,VWS V14.01,2013-04-01 18:37:00,
2013-04-01 14:42:00,85.1,42.0,30.00,North,0,0.0,0.0,22,0.00,,SCT120,0.00,VWS V14.01,2013-04-01 18:42:00,
2013-04-01 14:47:00,84.9,41.9,30.00,North,0,0.0,0.0,22,0.00,,SCT120,0.00,VWS V14.01,2013-04-01 18:47:00,
2013-04-01 14:52:00,85.1,40.8,30.00,North,0,0.0,0.0,21,0.00,,SCT120,0.00,VWS V14.01,2013-04-01 18:52:00,
2013-04-01 14:57:00,85.6,40.0,30.00,North,0,0.0,0.0,20,0.00,,SCT120,0.00,VWS V14.01,2013-04-01 18:57:00,
2013-04-01 15:02:00,86.4,39.3,30.00,North,0,0.0,0.0,19,0.00,,SCT120,0.00,VWS V14.01,2013-04-01 19:02:00,
2013-04-01 15:07:00,87.1,39.9,30.00,North,0,0.0,0.0,19,0.00,,SCT120,0.00,VWS V14.01,2013-04-01 19:07:00,
2013-04-01 15:12:00,86.9,38.3,30.00,North,0,0.0,0.0,18,0.00,,SCT120,0.00,VWS V14.01,2013-04-01 19:12:00,
2013-04-01 15:17:00,86.5,38.0,30.00,North,0,0.0,0.0,18,0.00,,SCT120,0.00,VWS V14.01,2013-04-01 19:17:00,
2013-04-01 15:22:00,86.2,39.1,30.00,North,0,0.0,0.0,19,0.00,,SCT120,0.00,VWS V14.01,2013-04-01 19:22:00,
2013-04-01 15:28:00,86.0,39.0,30.00,North,0,0.0,0.0,19,0.00,,SCT120,0.00,VWS V14.01,2013-04-01 19:28:00,
2013-04-01 15:33:00,86.4,37.9,30.00,North,0,0.0,0.0,18,0.00,,SCT120,0.00,VWS V14.01,2013-04-01 19:33:00,
2013-04-01 15:38:00,86.2,37.8,30.00,North,0,0.0,0.0,18,0.00,,SCT120,0.00,VWS V14.01,2013-04-01 19:38:00,
2013-04-01 15:43:00,86.7,39.6,30.00,North,0,0.0,0.0,19,0.00,,SCT120,0.00,VWS V14.01,2013-04-01 19:43:00,
2013-04-01 15:48:00,86.7,39.6,30.00,North,0,0.0,0.0,19,0.00,,SCT120,0.00,VWS V14.01,2013-04-01 19:48:00,
2013-04-01 15:53:00,87.1,38.5,30.00,North,0,0.0,0.0,18,0.00,,SCT120,0.00,VWS V14.01,2013-04-01 19:53:00,
2013-04-01 15:58:00,87.6,38.9,30.00,North,0,0.0,0.0,18,0.00,,SCT120,0.00,VWS V14.01,2013-04-01 19:58:00,
2013-04-01 16:03:00,87.4,35.8,30.00,North,0,0.0,0.0,16,0.00,,SCT120,0.00,VWS V14.01,2013-04-01 20:03:00,
2013-04-01 16:08:00,86.5,38.0,30.00,North,0,0.0,0.0,18,0.00,,SCT120,0.00,VWS V14.01,2013-04-01 20:08:00,
2013-04-01 16:13:00,86.2,39.1,30.00,North,0,0.0,0.0,19,0.00,,SCT120,0.00,VWS V14.01,2013-04-01 20:13:00,
2013-04-01 16:18:00,86.4,39.3,30.00,North,0,0.0,0.0,19,0.00,,SCT120,0.00,VWS V14.01,2013-04-01 20:18:00,
2013-04-01 16:23:00,86.4,39.3,30.00,North,0,0.0,0.0,19,0.00,,SCT120,0.00,VWS V14.01,2013-04-01 20:23:00,
2013-04-01 16:28:00,86.5,39.4,30.00,North,0,0.0,0.0,19,0.00,,SCT120,0.00,VWS V14.01,2013-04-01 20:28:00,
2013-04-01 16:33:00,85.8,40.2,30.00,North,0,0.0,0.0,20,0.00,,SCT120,0.00,VWS V14.01,2013-04-01 20:33:00,
2013-04-01 16:38:00,85.1,40.8,30.00,North,0,0.0,0.0,21,0.00,,SCT120,0.00,VWS V14.01,2013-04-01 20:38:00,
2013-04-01 16:43:00,84.6,41.6,30.00,North,0,0.0,0.0,22,0.00,,SCT120,0.00,VWS V14.01,2013-04-01 20:43:00,
2013-04-01 16:48:00,84.4,42.6,30.00,North,0,0.0,0.0,23,0.00,,SCT120,0.00,VWS V14.01,2013-04-01 20:48:00,
2013-04-01 16:53:00,84.4,43.7,30.00,North,0,0.0,0.0,24,0.00,,SCT120,0.00,VWS V14.01,2013-04-01 20:53:00,
2013-04-01 16:58:00,84.6,44.9,30.00,North,0,0.0,0.0,25,0.00,,SCT120,0.00,VWS V14.01,2013-04-01 20:58:00,
2013-04-01 17:03:00,84.4,43.7,30.00,North,0,0.0,0.0,24,0.00,,SCT120,0.00,VWS V14.01,2013-04-01 21:03:00,
2013-04-01 17:08:00,84.2,42.4,30.00,North,0,0.0,0.0,23,0.00,,SCT120,0.00,VWS V14.01,2013-04-01 21:08:00,
2013-04-01 17:13:00,84.0,41.1,30.00,North,0,0.0,0.0,22,0.00,,SCT120,0.00,VWS V14.01,2013-04-01 21:13:00,
2013-04-01 17:18:00,84.2,41.3,30.00,North,0,0.0,0.0,22,0.00,,SCT120,0.00,VWS V14.01,2013-04-01 21:18:00,
2013-04-01 17:23:00,83.7,42.0,30.00,North,0,0.0,0.0,23,0.00,,SCT120,0.00,VWS V14.01,2013-04-01 21:23:00,
2013-04-01 17:28:00,83.5,42.9,30.00,North,0,0.0,0.0,24,0.00,,SCT120,0.00,VWS V14.01,2013-04-01 21:28:00,
2013-04-01 17:33:00,83.7,43.1,30.00,North,0,0.0,0.0,24,0.00,,SCT120,0.00,VWS V14.01,2013-04-01 21:33:00,
2013-04-01 17:38:00,83.5,42.9,30.00,North,0,0.0,0.0,24,0.00,,SCT120,0.00,VWS V14.01,2013-04-01 21:38:00,
2013-04-01 17:43:00,83.3,43.8,30.00,North,0,0.0,0.0,25,0.00,,SCT120,0.00,VWS V14.01,2013-04-01 21:43:00,
2013-04-01 17:48:00,83.3,45.9,30.00,North,0,0.0,0.0,27,0.00,,SCT120,0.00,VWS V14.01,2013-04-01 21:48:00,
2013-04-01 17:53:00,83.1,46.7,30.00,North,0,0.0,0.0,28,0.00,,SCT120,0.00,VWS V14.01,2013-04-01 21:53:00,
2013-04-01 17:58:00,83.3,47.8,30.00,North,0,0.0,0.0,29,0.00,,SCT120,0.00,VWS V14.01,2013-04-01 21:58:00,
2013-04-01 18:03:00,83.3,47.8,30.00,North,0,0.0,0.0,29,0.00,,SCT120,0.00,VWS V14.01,2013-04-01 22:03:00,
2013-04-01 18:08:00,83.1,47.6,30.00,North,0,0.0,0.0,29,0.00,,SCT120,0.00,VWS V14.01,2013-04-01 22:08:00,
2013-04-01 18:13:00,82.9,48.3,30.00,North,0,0.0,0.0,30,0.00,,SCT120,0.00,VWS V14.01,2013-04-01 22:13:00,
2013-04-01 18:18:00,82.4,52.0,30.00,North,0,0.0,0.0,35,0.00,,SCT120,0.00,VWS V14.01,2013-04-01 22:18:00,
2013-04-01 18:23:00,81.1,53.9,30.00,North,0,0.0,0.0,39,0.00,,SCT120,0.00,VWS V14.01,2013-04-01 22:23:00,
2013-04-01 18:28:00,80.8,54.9,30.03,North,0,0.0,0.0,41,0.00,,SCT120,0.00,VWS V14.01,2013-04-01 22:28:00,
2013-04-01 18:33:00,80.4,55.2,30.03,North,0,0.0,0.0,42,0.00,,SCT120,0.00,VWS V14.01,2013-04-01 22:33:00,
2013-04-01 18:38:00,80.4,56.5,30.03,North,0,0.0,0.0,44,0.00,,SCT120,0.00,VWS V14.01,2013-04-01 22:38:00,
2013-04-01 18:43:00,80.4,58.4,30.03,North,0,0.0,0.0,47,0.00,,SCT120,0.00,VWS V14.01,2013-04-01 22:43:00,
2013-04-01 18:48:00,80.2,58.2,30.03,North,0,0.0,0.0,47,0.00,,SCT120,0.00,VWS V14.01,2013-04-01 22:48:00,
2013-04-01 18:53:00,80.2,58.8,30.03,North,0,0.0,0.0,48,0.00,,SCT120,0.00,VWS V14.01,2013-04-01 22:53:00,
2013-04-01 18:58:00,79.9,59.0,30.03,North,0,0.0,0.0,49,0.00,,SCT120,0.00,VWS V14.01,2013-04-01 22:58:00,
2013-04-01 19:03:00,79.9,59.6,30.03,North,0,0.0,0.0,50,0.00,,SCT120,0.00,VWS V14.01,2013-04-01 23:03:00,
2013-04-01 19:08:00,79.7,61.1,30.03,North,0,0.0,0.0,53,0.00,,SCT120,0.00,VWS V14.01,2013-04-01 23:08:00,
2013-04-01 19:13:00,79.3,59.7,30.03,North,0,0.0,0.0,51,0.00,,SCT120,0.00,VWS V14.01,2013-04-01 23:13:00,
2013-04-01 19:18:00,79.3,58.5,30.03,North,0,0.0,0.0,49,0.00,,SCT120,0.00,VWS V14.01,2013-04-01 23:18:00,
2013-04-01 19:23:00,79.3,56.2,30.03,North,0,0.0,0.0,45,0.00,,SCT120,0.00,VWS V14.01,2013-04-01 23:23:00,
2013-04-01 19:28:00,79.5,56.3,30.03,North,0,0.0,0.0,45,0.00,,SCT120,0.00,VWS V14.01,2013-04-01 23:28:00,
2013-04-01 19:33:00,79.7,55.9,30.03,North,0,0.0,0.0,44,0.00,,SCT120,0.00,VWS V14.01,2013-04-01 23:33:00,
2013-04-01 19:38:00,79.7,55.9,30.03,North,0,0.0,0.0,44,0.00,,SCT120,0.00,VWS V14.01,2013-04-01 23:38:00,
2013-04-01 19:43:00,79.7,55.2,30.03,North,0,0.0,0.0,43,0.00,,SCT120,0.00,VWS V14.01,2013-04-01 23:43:00,
2013-04-01 19:48:00,79.7,54.6,30.03,North,0,0.0,0.0,42,0.00,,SCT120,0.00,VWS V14.01,2013-04-01 23:48:00,
2013-04-01 19:53:00,79.7,54.6,30.03,North,0,0.0,0.0,42,0.00,,SCT120,0.00,VWS V14.01,2013-04-01 23:53:00,
2013-04-01 19:58:00,79.5,54.4,30.03,North,0,0.0,0.0,42,0.00,,SCT120,0.00,VWS V14.01,2013-04-01 23:58:00,
2013-04-01 20:03:00,79.5,54.4,30.03,North,0,0.0,0.0,42,0.00,,SCT120,0.00,VWS V14.01,2013-04-02 00:03:00,
2013-04-01 20:08:00,79.5,53.8,30.03,North,0,0.0,0.0,41,0.00,,SCT120,0.00,VWS V14.01,2013-04-02 00:08:00,
2013-04-01 20:13:00,79.5,53.8,30.03,North,0,0.0,0.0,41,0.00,,SCT120,0.00,VWS V14.01,2013-04-02 00:13:00,
2013-04-01 20:18:00,79.3,53.0,30.03,North,0,0.0,0.0,40,0.00,,SCT120,0.00,VWS V14.01,2013-04-02 00:18:00,
2013-04-01 20:23:00,79.3,53.0,30.03,North,0,0.0,0.0,40,0.00,,SCT120,0.00,VWS V14.01,2013-04-02 00:23:00,
2013-04-01 20:28:00,79.2,52.8,30.03,North,0,0.0,0.0,40,0.00,,SCT120,0.00,VWS V14.01,2013-04-02 00:28:00,
2013-04-01 20:33:00,79.0,53.3,30.03,North,0,0.0,0.0,41,0.00,,SCT120,0.00,VWS V14.01,2013-04-02 00:33:00,
2013-04-01 20:39:00,79.0,52.6,30.03,North,0,0.0,0.0,40,0.00,,SCT120,0.00,VWS V14.01,2013-04-02 00:39:00,
2013-04-01 20:43:00,78.8,53.1,30.03,North,0,0.0,0.0,41,0.00,,SCT120,0.00,VWS V14.01,2013-04-02 00:43:00,
2013-04-01 20:49:00,78.6,53.0,30.03,North,0,0.0,0.0,41,0.00,,SCT120,0.00,VWS V14.01,2013-04-02 00:49:00,
2013-04-01 20:54:00,78.4,52.8,30.06,North,0,0.0,0.0,41,0.00,,SCT120,0.00,VWS V14.01,2013-04-02 00:54:00,
2013-04-01 20:59:00,78.4,52.8,30.06,North,0,0.0,0.0,41,0.00,,SCT120,0.00,VWS V14.01,2013-04-02 00:59:00,
2013-04-01 21:04:00,78.6,53.0,30.06,North,0,0.0,0.0,41,0.00,,SCT120,0.00,VWS V14.01,2013-04-02 01:04:00,
2013-04-01 21:09:00,78.6,53.6,30.06,North,0,0.0,0.0,42,0.00,,SCT120,0.00,VWS V14.01,2013-04-02 01:09:00,
2013-04-01 21:14:00,78.4,53.5,30.06,North,0,0.0,0.0,42,0.00,,SCT120,0.00,VWS V14.01,2013-04-02 01:14:00,
2013-04-01 21:19:00,78.4,53.5,30.06,North,0,0.0,0.0,42,0.00,,SCT120,0.00,VWS V14.01,2013-04-02 01:19:00,
2013-04-01 21:24:00,78.6,53.6,30.06,North,0,0.0,0.0,42,0.00,,SCT120,0.00,VWS V14.01,2013-04-02 01:24:00,
2013-04-01 21:29:00,78.4,54.1,30.06,North,0,0.0,0.0,43,0.00,,SCT120,0.00,VWS V14.01,2013-04-02 01:29:00,
2013-04-01 21:34:00,78.3,54.0,30.06,North,0,0.0,0.0,43,0.00,,SCT120,0.00,VWS V14.01,2013-04-02 01:34:00,
2013-04-01 21:39:00,78.3,54.6,30.06,North,0,0.0,0.0,44,0.00,,SCT120,0.00,VWS V14.01,2013-04-02 01:39:00,
2013-04-01 21:44:00,78.1,54.4,30.06,North,0,0.0,0.0,44,0.00,,SCT120,0.00,VWS V14.01,2013-04-02 01:44:00,
2013-04-01 21:49:00,77.7,55.3,30.06,North,0,0.0,0.0,46,0.00,,SCT120,0.00,VWS V14.01,2013-04-02 01:49:00,
2013-04-01 21:54:00,77.4,56.7,30.06,North,0,0.0,0.0,49,0.00,,SCT120,0.00,VWS V14.01,2013-04-02 01:54:00,
2013-04-01 21:59:00,77.0,57.5,30.06,North,0,0.0,0.0,51,0.00,,SCT120,0.00,VWS V14.01,2013-04-02 01:59:00,
2013-04-01 22:04:00,77.0,58.6,30.06,North,0,0.0,0.0,53,0.00,,SCT120,0.00,VWS V14.01,2013-04-02 02:04:00,
2013-04-01 22:09:00,77.2,59.3,30.06,North,0,0.0,0.0,54,0.00,,SCT120,0.00,VWS V14.01,2013-04-02 02:09:00,
2013-04-01 22:14:00,77.4,59.4,30.06,North,0,0.0,0.0,54,0.00,,SCT120,0.00,VWS V14.01,2013-04-02 02:14:00,
2013-04-01 22:19:00,77.5,60.6,30.06,North,0,0.0,0.0,56,0.00,,SCT120,0.00,VWS V14.01,2013-04-02 02:19:00,
2013-04-01 22:24:00,77.4,61.0,30.06,North,0,0.0,0.0,57,0.00,,SCT120,0.00,VWS V14.01,2013-04-02 02:24:00,
2013-04-01 22:29:00,77.4,60.5,30.06,North,0,0.0,0.0,56,0.00,,SCT120,0.00,VWS V14.01,2013-04-02 02:29:00,
2013-04-01 22:34:00,77.2,60.8,30.06,North,0,0.0,0.0,57,0.00,,SCT120,0.00,VWS V14.01,2013-04-02 02:34:00,
2013-04-01 22:39:00,77.2,61.3,30.06,North,0,0.0,0.0,58,0.00,,SCT120,0.00,VWS V14.01,2013-04-02 02:39:00,
2013-04-01 22:44:00,77.2,61.8,30.06,North,0,0.0,0.0,59,0.00,,SCT120,0.00,VWS V14.01,2013-04-02 02:44:00,
2013-04-01 22:49:00,76.8,61.9,30.06,North,0,0.0,0.0,60,0.00,,SCT120,0.00,VWS V14.01,2013-04-02 02:49:00,
2013-04-01 22:54:00,76.6,62.2,30.06,North,0,0.0,0.0,61,0.00,,SCT120,0.00,VWS V14.01,2013-04-02 02:54:00,
2013-04-01 22:59:00,76.6,62.2,30.06,North,0,0.0,0.0,61,0.00,,SCT120,0.00,VWS V14.01,2013-04-02 02:59:00,
2013-04-01 23:04:00,76.6,62.7,30.06,North,0,0.0,0.0,62,0.00,,SCT120,0.00,VWS V14.01,2013-04-02 03:04:00,
2013-04-01 23:09:00,76.6,62.7,30.06,North,0,0.0,0.0,62,0.00,,SCT120,0.00,VWS V14.01,2013-04-02 03:09:00,
2013-04-01 23:14:00,76.5,62.9,30.06,North,0,0.0,0.0,63,0.00,,SCT120,0.00,VWS V14.01,2013-04-02 03:14:00,
2013-04-01 23:19:00,76.5,62.9,30.06,North,0,0.0,0.0,63,0.00,,SCT120,0.00,VWS V14.01,2013-04-02 03:19:00,
2013-04-01 23:24:00,76.5,62.9,30.06,North,0,0.0,0.0,63,0.00,,SCT120,0.00,VWS V14.01,2013-04-02 03:24:00,
2013-04-01 23:29:00,76.3,63.2,30.06,North,0,0.0,0.0,64,0.00,,SCT120,0.00,VWS V14.01,2013-04-02 03:29:00,
2013-04-01 23:34:00,76.3,63.2,30.06,North,0,0.0,0.0,64,0.00,,SCT120,0.00,VWS V14.01,2013-04-02 03:34:00,
2013-04-01 23:39:00,76.3,63.2,30.06,North,0,0.0,0.0,64,0.00,,SCT120,0.00,VWS V14.01,2013-04-02 03:39:00,
2013-04-01 23:44:00,76.1,63.5,30.06,North,0,0.0,0.0,65,0.00,,SCT120,0.00,VWS V14.01,2013-04-02 03:44:00,
2013-04-01 23:49:00,76.1,63.5,30.06,North,0,0.0,0.0,65,0.00,,SCT120,0.00,VWS V14.01,2013-04-02 03:49:00,
2013-04-01 23:54:00,75.9,63.3,30.06,North,0,0.0,0.0,65,0.00,,SCT120,0.00,VWS V14.01,2013-04-02 03:54:00,
2013-04-01 23:59:00,75.6,63.4,30.06,North,0,0.0,0.0,66,0.00,,SCT120,0.00,VWS V14.01,2013-04-02 03:59:00,